EIN310 EIDW-EBCI
Flight info
| Callsign | EIN310 |
|---|---|
| Flight time | 1h 10m |
| Altitude | 35000 |
| Route | DEXEN4E DEXEN UY124 AMPIT L15 BIG UL9 DVR L18 VABIK Q70 KOK |
| Aircraft | A320/M-SDE3FGHIRWY/LB1 |
Departure
| Time | 2026-05-08 18:39 |
|---|---|
| Airport | Dublin Airport (EIDW) |
Arrival
| Time | 2026-05-08 19:49 |
|---|---|
| Airport | Brussels South Charleroi Airport (EBCI) |
| Time | Latitude | Longitude | Altitude | Speed | Heading |
|---|---|---|---|---|---|
| 2026-05-08 18:10 | 53.42378 | -6.24439 | 225 ft | 0 kts | 135° |
| 2026-05-08 18:23 | 53.42380 | -6.24444 | 225 ft | 2 kts | 135° |
| 2026-05-08 18:23 | 53.42392 | -6.24464 | 225 ft | 2 kts | 135° |
| 2026-05-08 18:24 | 53.42404 | -6.24484 | 225 ft | 2 kts | 135° |
| 2026-05-08 18:24 | 53.42417 | -6.24505 | 226 ft | 2 kts | 135° |
| 2026-05-08 18:24 | 53.42428 | -6.24525 | 225 ft | 2 kts | 142° |
| 2026-05-08 18:24 | 53.42444 | -6.24534 | 230 ft | 2 kts | 213° |
| 2026-05-08 18:25 | 53.42448 | -6.24529 | 230 ft | 0 kts | 229° |
| 2026-05-08 18:27 | 53.42445 | -6.24535 | 230 ft | 3 kts | 229° |
| 2026-05-08 18:28 | 53.42421 | -6.24612 | 227 ft | 10 kts | 247° |
| 2026-05-08 18:28 | 53.42394 | -6.24709 | 225 ft | 8 kts | 240° |
| 2026-05-08 18:28 | 53.42362 | -6.24781 | 225 ft | 7 kts | 240° |
| 2026-05-08 18:28 | 53.42381 | -6.24867 | 225 ft | 10 kts | 321° |
| 2026-05-08 18:29 | 53.42442 | -6.24921 | 225 ft | 11 kts | 333° |
| 2026-05-08 18:29 | 53.42520 | -6.24979 | 225 ft | 14 kts | 339° |
| 2026-05-08 18:29 | 53.42609 | -6.25041 | 225 ft | 14 kts | 336° |
| 2026-05-08 18:29 | 53.42700 | -6.25106 | 225 ft | 14 kts | 335° |
| 2026-05-08 18:30 | 53.42762 | -6.25225 | 225 ft | 13 kts | 293° |
| 2026-05-08 18:30 | 53.42766 | -6.25277 | 225 ft | 0 kts | 266° |
| 2026-05-08 18:31 | 53.42766 | -6.25282 | 225 ft | 3 kts | 265° |
| 2026-05-08 18:31 | 53.42740 | -6.25350 | 226 ft | 12 kts | 226° |
| 2026-05-08 18:31 | 53.42667 | -6.25479 | 228 ft | 16 kts | 227° |
| 2026-05-08 18:31 | 53.42587 | -6.25611 | 225 ft | 16 kts | 224° |
| 2026-05-08 18:32 | 53.42511 | -6.25740 | 225 ft | 15 kts | 225° |
| 2026-05-08 18:32 | 53.42442 | -6.25856 | 225 ft | 13 kts | 225° |
| 2026-05-08 18:32 | 53.42379 | -6.25960 | 225 ft | 12 kts | 225° |
| 2026-05-08 18:32 | 53.42324 | -6.26052 | 225 ft | 10 kts | 225° |
| 2026-05-08 18:33 | 53.42284 | -6.26144 | 226 ft | 10 kts | 242° |
| 2026-05-08 18:33 | 53.42267 | -6.26290 | 225 ft | 16 kts | 271° |
| 2026-05-08 18:33 | 53.42278 | -6.26502 | 225 ft | 18 kts | 276° |
| 2026-05-08 18:33 | 53.42291 | -6.26703 | 225 ft | 16 kts | 276° |
| 2026-05-08 18:34 | 53.42301 | -6.26892 | 225 ft | 17 kts | 275° |
| 2026-05-08 18:34 | 53.42311 | -6.27096 | 225 ft | 19 kts | 274° |
| 2026-05-08 18:34 | 53.42323 | -6.27317 | 226 ft | 20 kts | 276° |
| 2026-05-08 18:34 | 53.42336 | -6.27551 | 227 ft | 21 kts | 275° |
| 2026-05-08 18:35 | 53.42350 | -6.27791 | 225 ft | 20 kts | 275° |
| 2026-05-08 18:35 | 53.42362 | -6.28008 | 225 ft | 18 kts | 274° |
| 2026-05-08 18:35 | 53.42373 | -6.28203 | 225 ft | 16 kts | 275° |
| 2026-05-08 18:35 | 53.42383 | -6.28377 | 225 ft | 14 kts | 275° |
| 2026-05-08 18:36 | 53.42392 | -6.28551 | 225 ft | 17 kts | 275° |
| 2026-05-08 18:36 | 53.42402 | -6.28749 | 225 ft | 16 kts | 275° |
| 2026-05-08 18:36 | 53.42412 | -6.28924 | 225 ft | 13 kts | 274° |
| 2026-05-08 18:36 | 53.42385 | -6.29044 | 225 ft | 10 kts | 222° |
| 2026-05-08 18:37 | 53.42326 | -6.29070 | 227 ft | 7 kts | 181° |
| 2026-05-08 18:37 | 53.42285 | -6.29061 | 229 ft | 5 kts | 165° |
| 2026-05-08 18:37 | 53.42258 | -6.29033 | 234 ft | 6 kts | 136° |
| 2026-05-08 18:37 | 53.42238 | -6.28929 | 235 ft | 13 kts | 96° |
| 2026-05-08 18:38 | 53.42229 | -6.28746 | 236 ft | 28 kts | 94° |
| 2026-05-08 18:38 | 53.42188 | -6.27987 | 235 ft | 99 kts | 95° |
| 2026-05-08 18:38 | 53.42108 | -6.26522 | 234 ft | 152 kts | 95° |
| 2026-05-08 18:38 | 53.42002 | -6.24653 | 673 ft | 161 kts | 93° |
| 2026-05-08 18:39 | 53.41887 | -6.22788 | 1455 ft | 160 kts | 94° |
| 2026-05-08 18:39 | 53.41765 | -6.20891 | 2048 ft | 169 kts | 92° |
| 2026-05-08 18:39 | 53.41649 | -6.18866 | 2554 ft | 177 kts | 92° |
| 2026-05-08 18:39 | 53.41545 | -6.16765 | 3086 ft | 186 kts | 91° |
| 2026-05-08 18:40 | 53.41443 | -6.14527 | 3536 ft | 198 kts | 92° |
| 2026-05-08 18:40 | 53.41318 | -6.12149 | 3969 ft | 212 kts | 94° |
| 2026-05-08 18:40 | 53.41054 | -6.09653 | 4509 ft | 224 kts | 110° |
| 2026-05-08 18:40 | 53.40440 | -6.07162 | 5099 ft | 238 kts | 111° |
| 2026-05-08 18:41 | 53.39872 | -6.04473 | 5689 ft | 251 kts | 110° |
| 2026-05-08 18:41 | 53.39277 | -6.01672 | 6450 ft | 257 kts | 110° |
| 2026-05-08 18:41 | 53.38687 | -5.98888 | 7252 ft | 260 kts | 111° |
| 2026-05-08 18:41 | 53.38063 | -5.96004 | 7977 ft | 267 kts | 112° |
| 2026-05-08 18:42 | 53.37421 | -5.93048 | 8731 ft | 273 kts | 112° |
| 2026-05-08 18:42 | 53.36776 | -5.90033 | 9550 ft | 276 kts | 112° |
| 2026-05-08 18:42 | 53.36125 | -5.86985 | 10349 ft | 280 kts | 112° |
| 2026-05-08 18:42 | 53.35438 | -5.83806 | 10621 ft | 302 kts | 112° |
| 2026-05-08 18:43 | 53.34692 | -5.80372 | 10840 ft | 324 kts | 111° |
| 2026-05-08 18:43 | 53.33909 | -5.76772 | 11405 ft | 333 kts | 112° |
| 2026-05-08 18:43 | 53.33112 | -5.73109 | 12078 ft | 338 kts | 111° |
| 2026-05-08 18:43 | 53.32299 | -5.69396 | 12756 ft | 343 kts | 112° |
| 2026-05-08 18:44 | 53.31470 | -5.65619 | 13412 ft | 348 kts | 112° |
| 2026-05-08 18:44 | 53.30627 | -5.61795 | 14052 ft | 353 kts | 112° |
| 2026-05-08 18:44 | 53.29774 | -5.57929 | 14651 ft | 357 kts | 112° |
| 2026-05-08 18:44 | 53.28910 | -5.54010 | 15250 ft | 361 kts | 112° |
| 2026-05-08 18:45 | 53.28193 | -5.50024 | 15840 ft | 367 kts | 103° |
| 2026-05-08 18:45 | 53.27901 | -5.45715 | 16213 ft | 380 kts | 95° |
| 2026-05-08 18:45 | 53.27788 | -5.41276 | 16713 ft | 386 kts | 95° |
| 2026-05-08 18:45 | 53.27669 | -5.36772 | 17277 ft | 390 kts | 95° |
| 2026-05-08 18:46 | 53.27544 | -5.32231 | 17843 ft | 393 kts | 95° |
| 2026-05-08 18:46 | 53.27410 | -5.27643 | 18412 ft | 397 kts | 96° |
| 2026-05-08 18:46 | 53.27265 | -5.23008 | 18897 ft | 401 kts | 96° |
| 2026-05-08 18:46 | 53.27118 | -5.18333 | 19379 ft | 405 kts | 96° |
| 2026-05-08 18:47 | 53.26970 | -5.13610 | 19858 ft | 409 kts | 96° |
| 2026-05-08 18:47 | 53.26814 | -5.08847 | 20345 ft | 413 kts | 96° |
| 2026-05-08 18:47 | 53.26657 | -5.04041 | 20810 ft | 417 kts | 96° |
| 2026-05-08 18:47 | 53.26495 | -4.99182 | 21277 ft | 420 kts | 96° |
| 2026-05-08 18:48 | 53.26329 | -4.94284 | 21732 ft | 424 kts | 96° |
| 2026-05-08 18:48 | 53.26159 | -4.89345 | 22163 ft | 428 kts | 96° |
| 2026-05-08 18:48 | 53.25986 | -4.84362 | 22595 ft | 432 kts | 96° |
| 2026-05-08 18:48 | 53.25807 | -4.79345 | 23019 ft | 435 kts | 96° |
| 2026-05-08 18:49 | 53.25624 | -4.74274 | 23433 ft | 439 kts | 96° |
| 2026-05-08 18:49 | 53.25442 | -4.69164 | 23808 ft | 442 kts | 96° |
| 2026-05-08 18:49 | 53.25268 | -4.64019 | 24140 ft | 445 kts | 96° |
| 2026-05-08 18:49 | 53.25094 | -4.58843 | 24450 ft | 449 kts | 96° |
| 2026-05-08 18:50 | 53.24919 | -4.53622 | 24759 ft | 452 kts | 96° |
| 2026-05-08 18:50 | 53.24743 | -4.48366 | 25076 ft | 455 kts | 96° |
| 2026-05-08 18:50 | 53.24564 | -4.43139 | 25383 ft | 458 kts | 96° |
| 2026-05-08 18:50 | 53.24377 | -4.37816 | 25700 ft | 460 kts | 96° |
| 2026-05-08 18:51 | 53.24184 | -4.32460 | 26007 ft | 463 kts | 96° |
| 2026-05-08 18:51 | 53.23988 | -4.27075 | 26311 ft | 466 kts | 97° |
| 2026-05-08 18:51 | 53.23787 | -4.21668 | 26612 ft | 468 kts | 97° |
| 2026-05-08 18:51 | 53.23582 | -4.16237 | 26906 ft | 471 kts | 97° |
| 2026-05-08 18:52 | 53.23374 | -4.10762 | 27193 ft | 473 kts | 97° |
| 2026-05-08 18:52 | 53.23158 | -4.05261 | 27465 ft | 476 kts | 97° |
| 2026-05-08 18:52 | 53.22939 | -3.99741 | 27751 ft | 478 kts | 97° |
| 2026-05-08 18:52 | 53.22720 | -3.94202 | 28019 ft | 480 kts | 97° |
| 2026-05-08 18:53 | 53.22497 | -3.88634 | 28271 ft | 482 kts | 97° |
| 2026-05-08 18:53 | 53.22267 | -3.83026 | 28526 ft | 485 kts | 97° |
| 2026-05-08 18:53 | 53.22031 | -3.77389 | 28760 ft | 487 kts | 97° |
| 2026-05-08 18:53 | 53.21791 | -3.71743 | 29008 ft | 489 kts | 97° |
| 2026-05-08 18:54 | 53.21547 | -3.66079 | 29236 ft | 491 kts | 97° |
| 2026-05-08 18:54 | 53.21300 | -3.60381 | 29453 ft | 493 kts | 97° |
| 2026-05-08 18:54 | 53.21048 | -3.54665 | 29638 ft | 495 kts | 97° |
| 2026-05-08 18:54 | 53.20790 | -3.48924 | 29899 ft | 496 kts | 97° |
| 2026-05-08 18:55 | 53.20270 | -3.37462 | 30448 ft | 495 kts | 97° |
| 2026-05-08 18:55 | 53.20011 | -3.31821 | 30734 ft | 494 kts | 98° |
| 2026-05-08 18:55 | 53.19488 | -3.26187 | 30981 ft | 490 kts | 107° |
| 2026-05-08 18:56 | 53.18464 | -3.20791 | 31221 ft | 485 kts | 116° |
| 2026-05-08 18:56 | 53.16992 | -3.15783 | 31475 ft | 480 kts | 125° |
| 2026-05-08 18:56 | 53.15115 | -3.11219 | 31722 ft | 474 kts | 134° |
| 2026-05-08 18:56 | 53.12962 | -3.07096 | 31966 ft | 472 kts | 137° |
| 2026-05-08 18:57 | 53.10751 | -3.02964 | 32188 ft | 473 kts | 136° |
| 2026-05-08 18:57 | 53.09300 | -3.00252 | 32338 ft | 473 kts | 136° |
| 2026-05-08 18:57 | 53.06365 | -2.94779 | 32662 ft | 474 kts | 136° |
| 2026-05-08 18:57 | 53.04204 | -2.90752 | 32906 ft | 474 kts | 136° |
| 2026-05-08 18:58 | 53.01984 | -2.86617 | 33157 ft | 474 kts | 136° |
| 2026-05-08 18:58 | 52.99817 | -2.82588 | 33402 ft | 474 kts | 136° |
| 2026-05-08 18:58 | 52.97618 | -2.78506 | 33646 ft | 474 kts | 137° |
| 2026-05-08 18:58 | 52.95419 | -2.74438 | 33886 ft | 473 kts | 136° |
| 2026-05-08 18:59 | 52.93218 | -2.70374 | 34150 ft | 473 kts | 136° |
| 2026-05-08 18:59 | 52.91021 | -2.66326 | 34383 ft | 472 kts | 136° |
| 2026-05-08 18:59 | 52.88826 | -2.62282 | 34630 ft | 471 kts | 136° |
| 2026-05-08 18:59 | 52.86640 | -2.58256 | 34870 ft | 470 kts | 136° |
| 2026-05-08 19:00 | 52.85188 | -2.55588 | 34994 ft | 470 kts | 136° |
| 2026-05-08 19:00 | 52.80050 | -2.46184 | 35076 ft | 472 kts | 136° |
| 2026-05-08 19:01 | 52.75633 | -2.38132 | 35088 ft | 473 kts | 136° |
| 2026-05-08 19:01 | 52.71215 | -2.30087 | 35080 ft | 473 kts | 136° |
| 2026-05-08 19:02 | 52.66796 | -2.22061 | 35087 ft | 473 kts | 136° |
| 2026-05-08 19:02 | 52.62365 | -2.14057 | 35084 ft | 472 kts | 136° |
| 2026-05-08 19:03 | 52.57939 | -2.06078 | 35082 ft | 472 kts | 136° |
| 2026-05-08 19:03 | 52.53504 | -1.98120 | 35072 ft | 472 kts | 136° |
| 2026-05-08 19:04 | 52.49056 | -1.90165 | 35060 ft | 473 kts | 136° |
| 2026-05-08 19:04 | 52.44605 | -1.82234 | 35089 ft | 473 kts | 136° |
| 2026-05-08 19:05 | 52.40173 | -1.74357 | 35090 ft | 473 kts | 136° |
| 2026-05-08 19:05 | 52.35705 | -1.66461 | 35092 ft | 473 kts | 136° |
| 2026-05-08 19:06 | 52.31195 | -1.58633 | 35091 ft | 473 kts | 137° |
| 2026-05-08 19:06 | 52.26631 | -1.50889 | 35077 ft | 473 kts | 137° |
| 2026-05-08 19:07 | 52.22069 | -1.43167 | 35084 ft | 473 kts | 137° |
| 2026-05-08 19:07 | 52.17510 | -1.35429 | 35090 ft | 473 kts | 137° |
| 2026-05-08 19:08 | 52.12943 | -1.27690 | 35093 ft | 474 kts | 137° |
| 2026-05-08 19:08 | 52.08366 | -1.19967 | 35093 ft | 474 kts | 137° |
| 2026-05-08 19:09 | 52.03779 | -1.12283 | 35080 ft | 474 kts | 137° |
| 2026-05-08 19:09 | 51.99184 | -1.04616 | 35073 ft | 473 kts | 137° |
| 2026-05-08 19:10 | 51.94596 | -0.96952 | 35068 ft | 473 kts | 136° |
| 2026-05-08 19:10 | 51.90007 | -0.89287 | 35074 ft | 474 kts | 136° |
| 2026-05-08 19:11 | 51.85408 | -0.81643 | 35083 ft | 474 kts | 137° |
| 2026-05-08 19:11 | 51.80815 | -0.74064 | 35090 ft | 475 kts | 137° |
| 2026-05-08 19:12 | 51.76197 | -0.66460 | 35085 ft | 474 kts | 136° |
| 2026-05-08 19:12 | 51.71572 | -0.58873 | 35080 ft | 474 kts | 137° |
| 2026-05-08 19:13 | 51.67116 | -0.51569 | 35083 ft | 474 kts | 136° |
| 2026-05-08 19:13 | 51.63263 | -0.45260 | 35082 ft | 473 kts | 137° |
| 2026-05-08 19:14 | 51.58663 | -0.37781 | 35082 ft | 473 kts | 137° |
| 2026-05-08 19:14 | 51.54029 | -0.30258 | 35082 ft | 473 kts | 137° |
| 2026-05-08 19:15 | 51.49399 | -0.22753 | 35090 ft | 473 kts | 137° |
| 2026-05-08 19:15 | 51.44762 | -0.15257 | 35113 ft | 473 kts | 137° |
| 2026-05-08 19:16 | 51.40148 | -0.07852 | 35108 ft | 473 kts | 137° |
| 2026-05-08 19:16 | 51.35696 | -0.00229 | 35106 ft | 474 kts | 128° |
| 2026-05-08 19:16 | 51.33928 | 0.04235 | 35113 ft | 476 kts | 117° |
| 2026-05-08 19:17 | 51.32624 | 0.09101 | 35110 ft | 476 kts | 108° |
| 2026-05-08 19:17 | 51.31171 | 0.19403 | 35131 ft | 476 kts | 101° |
| 2026-05-08 19:18 | 51.29900 | 0.29707 | 35145 ft | 476 kts | 101° |
| 2026-05-08 19:18 | 51.28602 | 0.40085 | 35156 ft | 477 kts | 101° |
| 2026-05-08 19:19 | 51.27310 | 0.50479 | 35157 ft | 477 kts | 101° |
| 2026-05-08 19:19 | 51.26013 | 0.60864 | 35153 ft | 476 kts | 101° |
| 2026-05-08 19:20 | 51.24696 | 0.71222 | 35145 ft | 476 kts | 101° |
| 2026-05-08 19:20 | 51.23367 | 0.81568 | 35134 ft | 476 kts | 101° |
| 2026-05-08 19:21 | 51.22033 | 0.91911 | 35119 ft | 476 kts | 101° |
| 2026-05-08 19:21 | 51.20701 | 1.02179 | 35107 ft | 476 kts | 101° |
| 2026-05-08 19:22 | 51.19352 | 1.12510 | 35109 ft | 476 kts | 101° |
| 2026-05-08 19:22 | 51.17992 | 1.22843 | 35107 ft | 477 kts | 101° |
| 2026-05-08 19:23 | 51.16838 | 1.33245 | 35108 ft | 475 kts | 92° |
| 2026-05-08 19:23 | 51.17300 | 1.43663 | 35117 ft | 470 kts | 75° |
| 2026-05-08 19:24 | 51.18660 | 1.53849 | 35118 ft | 470 kts | 75° |
| 2026-05-08 19:24 | 51.20001 | 1.64036 | 35120 ft | 470 kts | 75° |
| 2026-05-08 19:25 | 51.21331 | 1.74224 | 35118 ft | 470 kts | 75° |
| 2026-05-08 19:25 | 51.22658 | 1.84423 | 35118 ft | 470 kts | 75° |
| 2026-05-08 19:26 | 51.23967 | 1.94637 | 35122 ft | 469 kts | 75° |
| 2026-05-08 19:26 | 51.24420 | 2.04970 | 35132 ft | 474 kts | 92° |
| 2026-05-08 19:27 | 51.23903 | 2.15447 | 35130 ft | 474 kts | 91° |
| 2026-05-08 19:27 | 51.23498 | 2.25909 | 35124 ft | 472 kts | 92° |
| 2026-05-08 19:28 | 51.22540 | 2.36295 | 34748 ft | 475 kts | 104° |
| 2026-05-08 19:28 | 51.21410 | 2.41257 | 33971 ft | 480 kts | 112° |
| 2026-05-08 19:28 | 51.19761 | 2.45904 | 33074 ft | 484 kts | 123° |
| 2026-05-08 19:28 | 51.17645 | 2.50111 | 32194 ft | 487 kts | 129° |
| 2026-05-08 19:29 | 51.15432 | 2.54208 | 31300 ft | 488 kts | 130° |
| 2026-05-08 19:29 | 51.13206 | 2.58309 | 30417 ft | 489 kts | 130° |
| 2026-05-08 19:29 | 51.11158 | 2.62629 | 29511 ft | 487 kts | 120° |
| 2026-05-08 19:29 | 51.09626 | 2.67369 | 28851 ft | 478 kts | 110° |
| 2026-05-08 19:30 | 51.08634 | 2.72280 | 28214 ft | 468 kts | 100° |
| 2026-05-08 19:30 | 51.08006 | 2.77389 | 27557 ft | 462 kts | 98° |
| 2026-05-08 19:30 | 51.07419 | 2.82317 | 26946 ft | 456 kts | 98° |
| 2026-05-08 19:30 | 51.06828 | 2.87245 | 26381 ft | 450 kts | 98° |
| 2026-05-08 19:31 | 51.06243 | 2.92083 | 25843 ft | 444 kts | 99° |
| 2026-05-08 19:31 | 51.05659 | 2.96876 | 25280 ft | 438 kts | 99° |
| 2026-05-08 19:31 | 51.05082 | 3.01592 | 24726 ft | 433 kts | 99° |
| 2026-05-08 19:31 | 51.04511 | 3.06267 | 24182 ft | 428 kts | 99° |
| 2026-05-08 19:32 | 51.03943 | 3.10890 | 23642 ft | 424 kts | 100° |
| 2026-05-08 19:32 | 51.03379 | 3.15458 | 23020 ft | 419 kts | 100° |
| 2026-05-08 19:32 | 51.02819 | 3.19976 | 22424 ft | 416 kts | 100° |
| 2026-05-08 19:32 | 51.02261 | 3.24466 | 21847 ft | 412 kts | 100° |
| 2026-05-08 19:33 | 51.01704 | 3.28916 | 21287 ft | 409 kts | 101° |
| 2026-05-08 19:33 | 51.01152 | 3.33328 | 20747 ft | 406 kts | 101° |
| 2026-05-08 19:33 | 51.00604 | 3.37715 | 20224 ft | 403 kts | 101° |
| 2026-05-08 19:33 | 51.00060 | 3.42065 | 19710 ft | 400 kts | 101° |
| 2026-05-08 19:34 | 50.99517 | 3.46392 | 19202 ft | 398 kts | 101° |
| 2026-05-08 19:34 | 50.98976 | 3.50662 | 18707 ft | 395 kts | 102° |
| 2026-05-08 19:34 | 50.98431 | 3.54935 | 18191 ft | 393 kts | 102° |
| 2026-05-08 19:34 | 50.97890 | 3.59162 | 17661 ft | 389 kts | 102° |
| 2026-05-08 19:35 | 50.97350 | 3.63356 | 17157 ft | 386 kts | 102° |
| 2026-05-08 19:35 | 50.96815 | 3.67502 | 16662 ft | 382 kts | 102° |
| 2026-05-08 19:35 | 50.96290 | 3.71597 | 16184 ft | 379 kts | 102° |
| 2026-05-08 19:35 | 50.95765 | 3.75665 | 15708 ft | 375 kts | 102° |
| 2026-05-08 19:36 | 50.95243 | 3.79688 | 15239 ft | 372 kts | 102° |
| 2026-05-08 19:36 | 50.94725 | 3.83686 | 14777 ft | 369 kts | 102° |
| 2026-05-08 19:36 | 50.94210 | 3.87643 | 14316 ft | 365 kts | 102° |
| 2026-05-08 19:36 | 50.93700 | 3.91567 | 13864 ft | 362 kts | 103° |
| 2026-05-08 19:37 | 50.93138 | 3.94728 | 13436 ft | 359 kts | 111° |
| 2026-05-08 19:37 | 50.92081 | 3.98284 | 12912 ft | 355 kts | 121° |
| 2026-05-08 19:37 | 50.90652 | 4.01446 | 12380 ft | 352 kts | 132° |
| 2026-05-08 19:37 | 50.88902 | 4.04139 | 11843 ft | 349 kts | 141° |
| 2026-05-08 19:38 | 50.87025 | 4.06532 | 11420 ft | 344 kts | 142° |
| 2026-05-08 19:38 | 50.85187 | 4.08886 | 11121 ft | 335 kts | 142° |
| 2026-05-08 19:38 | 50.83406 | 4.11174 | 10819 ft | 327 kts | 142° |
| 2026-05-08 19:38 | 50.81656 | 4.13424 | 10568 ft | 319 kts | 142° |
| 2026-05-08 19:39 | 50.79962 | 4.15601 | 10418 ft | 308 kts | 142° |
| 2026-05-08 19:39 | 50.78327 | 4.17698 | 10276 ft | 297 kts | 142° |
| 2026-05-08 19:39 | 50.76745 | 4.19726 | 10127 ft | 291 kts | 142° |
| 2026-05-08 19:39 | 50.75177 | 4.21732 | 9855 ft | 290 kts | 142° |
| 2026-05-08 19:40 | 50.73637 | 4.23696 | 9486 ft | 287 kts | 142° |
| 2026-05-08 19:40 | 50.72083 | 4.25674 | 9111 ft | 285 kts | 142° |
| 2026-05-08 19:40 | 50.70527 | 4.27652 | 8736 ft | 282 kts | 142° |
| 2026-05-08 19:40 | 50.68965 | 4.29423 | 8378 ft | 279 kts | 150° |
| 2026-05-08 19:41 | 50.67232 | 4.30717 | 8023 ft | 274 kts | 165° |
| 2026-05-08 19:41 | 50.65359 | 4.30997 | 7663 ft | 270 kts | 186° |
| 2026-05-08 19:41 | 50.63482 | 4.30643 | 7308 ft | 267 kts | 188° |
| 2026-05-08 19:41 | 50.61653 | 4.30270 | 6960 ft | 264 kts | 188° |
| 2026-05-08 19:42 | 50.59840 | 4.29892 | 6614 ft | 262 kts | 188° |
| 2026-05-08 19:42 | 50.58070 | 4.29522 | 6262 ft | 259 kts | 187° |
| 2026-05-08 19:42 | 50.56288 | 4.29149 | 5902 ft | 257 kts | 187° |
| 2026-05-08 19:42 | 50.54518 | 4.28781 | 5542 ft | 256 kts | 187° |
| 2026-05-08 19:43 | 50.52759 | 4.28414 | 5190 ft | 255 kts | 187° |
| 2026-05-08 19:43 | 50.50996 | 4.28045 | 4834 ft | 254 kts | 186° |
| 2026-05-08 19:43 | 50.49281 | 4.27416 | 4468 ft | 254 kts | 202° |
| 2026-05-08 19:43 | 50.47792 | 4.25957 | 4107 ft | 253 kts | 221° |
| 2026-05-08 19:44 | 50.46698 | 4.23810 | 3746 ft | 252 kts | 241° |
| 2026-05-08 19:44 | 50.45932 | 4.21346 | 3400 ft | 250 kts | 237° |
| 2026-05-08 19:44 | 50.44717 | 4.19490 | 3034 ft | 243 kts | 205° |
| 2026-05-08 19:44 | 50.43115 | 4.18886 | 2681 ft | 236 kts | 174° |
| 2026-05-08 19:45 | 50.41593 | 4.19566 | 2504 ft | 222 kts | 152° |
| 2026-05-08 19:45 | 50.40376 | 4.20845 | 2501 ft | 202 kts | 127° |
| 2026-05-08 19:45 | 50.39819 | 4.22724 | 2523 ft | 184 kts | 96° |
| 2026-05-08 19:45 | 50.39973 | 4.24660 | 2530 ft | 179 kts | 68° |
| 2026-05-08 19:46 | 50.40493 | 4.26418 | 2516 ft | 177 kts | 66° |
| 2026-05-08 19:46 | 50.41008 | 4.28170 | 2510 ft | 177 kts | 66° |
| 2026-05-08 19:46 | 50.42017 | 4.31626 | 2390 ft | 172 kts | 66° |
| 2026-05-08 19:47 | 50.42511 | 4.33314 | 2137 ft | 168 kts | 66° |
| 2026-05-08 19:47 | 50.42987 | 4.34953 | 1899 ft | 161 kts | 66° |
| 2026-05-08 19:47 | 50.43437 | 4.36501 | 1685 ft | 150 kts | 66° |
| 2026-05-08 19:47 | 50.43852 | 4.37923 | 1485 ft | 140 kts | 66° |
| 2026-05-08 19:48 | 50.44236 | 4.39288 | 1293 ft | 135 kts | 66° |
| 2026-05-08 19:48 | 50.44630 | 4.40618 | 1115 ft | 135 kts | 64° |
| 2026-05-08 19:48 | 50.45018 | 4.41953 | 961 ft | 135 kts | 65° |
| 2026-05-08 19:48 | 50.45411 | 4.43298 | 778 ft | 135 kts | 65° |
| 2026-05-08 19:49 | 50.45797 | 4.44633 | 643 ft | 130 kts | 65° |
| 2026-05-08 19:49 | 50.46123 | 4.45756 | 632 ft | 84 kts | 66° |
| 2026-05-08 19:49 | 50.46217 | 4.46086 | 623 ft | 14 kts | 65° |
| 2026-05-08 19:49 | 50.46218 | 4.46194 | 621 ft | 9 kts | 125° |
| 2026-05-08 19:50 | 50.46171 | 4.46237 | 624 ft | 7 kts | 154° |
| 2026-05-08 19:50 | 50.46130 | 4.46252 | 618 ft | 7 kts | 191° |
| 2026-05-08 19:50 | 50.46095 | 4.46184 | 625 ft | 10 kts | 243° |
| 2026-05-08 19:50 | 50.46064 | 4.46078 | 628 ft | 10 kts | 250° |
| 2026-05-08 19:51 | 50.46049 | 4.45985 | 630 ft | 8 kts | 258° |
| 2026-05-08 19:51 | 50.46041 | 4.45914 | 621 ft | 7 kts | 260° |
| 2026-05-08 19:51 | 50.46020 | 4.45816 | 629 ft | 12 kts | 248° |
| 2026-05-08 19:51 | 50.45990 | 4.45708 | 631 ft | 11 kts | 245° |
| 2026-05-08 19:52 | 50.45960 | 4.45604 | 626 ft | 9 kts | 246° |
| 2026-05-08 19:52 | 50.45928 | 4.45536 | 625 ft | 7 kts | 195° |
| 2026-05-08 19:52 | 50.45891 | 4.45533 | 623 ft | 4 kts | 215° |
| 2026-05-08 19:52 | 50.45882 | 4.45511 | 631 ft | 0 kts | 240° |